sensor_id;sensor_type;location;lat;lon;timestamp;pressure;altitude;pressure_sealevel;temperature;humidity
5062;BME280;2351;50.812;12.872;2023-04-01T00:01:02;96178.03;;;7.04;100.00
5062;BME280;2351;50.812;12.872;2023-04-01T00:03:34;96176.53;;;7.02;100.00
5062;BME280;2351;50.812;12.872;2023-04-01T00:06:06;96174.56;;;7.04;100.00
5062;BME280;2351;50.812;12.872;2023-04-01T00:08:38;96160.44;;;7.05;100.00
5062;BME280;2351;50.812;12.872;2023-04-01T00:11:10;96174.56;;;7.04;100.00
5062;BME280;2351;50.812;12.872;2023-04-01T00:13:43;96172.59;;;7.06;100.00
5062;BME280;2351;50.812;12.872;2023-04-01T00:16:15;96166.53;;;7.05;100.00
5062;BME280;2351;50.812;12.872;2023-04-01T00:18:48;96161.41;;;7.04;100.00
5062;BME280;2351;50.812;12.872;2023-04-01T00:21:20;96165.69;;;7.05;100.00
5062;BME280;2351;50.812;12.872;2023-04-01T00:23:52;96164.03;;;7.04;100.00
5062;BME280;2351;50.812;12.872;2023-04-01T00:26:25;96171.94;;;7.04;100.00
5062;BME280;2351;50.812;12.872;2023-04-01T00:28:59;96167.66;;;7.03;100.00
5062;BME280;2351;50.812;12.872;2023-04-01T00:31:31;96166.53;;;7.05;100.00
5062;BME280;2351;50.812;12.872;2023-04-01T00:34:03;96166.53;;;7.05;100.00
5062;BME280;2351;50.812;12.872;2023-04-01T00:36:35;96172.78;;;7.04;100.00
5062;BME280;2351;50.812;12.872;2023-04-01T00:39:07;96161.41;;;7.04;100.00
5062;BME280;2351;50.812;12.872;2023-04-01T00:41:38;96166.66;;;7.04;100.00
5062;BME280;2351;50.812;12.872;2023-04-01T00:44:19;96170.16;;;7.04;100.00
5062;BME280;2351;50.812;12.872;2023-04-01T00:46:51;96176.38;;;7.03;100.00
5062;BME280;2351;50.812;12.872;2023-04-01T00:49:26;96165.69;;;7.05;100.00
5062;BME280;2351;50.812;12.872;2023-04-01T00:52:00;96165.38;;;7.08;100.00
5062;BME280;2351;50.812;12.872;2023-04-01T00:54:34;96175.63;;;7.11;100.00
5062;BME280;2351;50.812;12.872;2023-04-01T00:57:10;96168.69;;;7.10;100.00
5062;BME280;2351;50.812;12.872;2023-04-01T00:59:46;96174.09;;;7.08;100.00
5062;BME280;2351;50.812;12.872;2023-04-01T01:02:20;96170.19;;;7.13;100.00
5062;BME280;2351;50.812;12.872;2023-04-01T01:04:52;96166.75;;;7.12;100.00
5062;BME280;2351;50.812;12.872;2023-04-01T01:07:27;96160.94;;;7.08;100.00
5062;BME280;2351;50.812;12.872;2023-04-01T01:10:07;96161.28;;;7.05;100.00
5062;BME280;2351;50.812;12.872;2023-04-01T01:12:46;96166.66;;;7.04;100.00
5062;BME280;2351;50.812;12.872;2023-04-01T01:15:25;96168.31;;;7.05;100.00
5062;BME280;2351;50.812;12.872;2023-04-01T01:18:03;96155.94;;;6.97;100.00
5062;BME280;2351;50.812;12.872;2023-04-01T01:21:01;96170.75;;;6.98;100.00
5062;BME280;2351;50.812;12.872;2023-04-01T01:23:58;96174.06;;;7.00;100.00
5062;BME280;2351;50.812;12.872;2023-04-01T01:26:52;96162.69;;;7.00;100.00
5062;BME280;2351;50.812;12.872;2023-04-01T01:29:47;96151.50;;;6.98;100.00
5062;BME280;2351;50.812;12.872;2023-04-01T01:33:06;96167.66;;;7.03;100.00
5062;BME280;2351;50.812;12.872;2023-04-01T01:35:44;96156.16;;;7.04;100.00
5062;BME280;2351;50.812;12.872;2023-04-01T01:38:19;96164.66;;;6.98;100.00
5062;BME280;2351;50.812;12.872;2023-04-01T01:40:53;96160.06;;;7.00;100.00
5062;BME280;2351;50.812;12.872;2023-04-01T01:43:32;96154.28;;;6.96;100.00
5062;BME280;2351;50.812;12.872;2023-04-01T01:46:07;96155.75;;;6.90;100.00
5062;BME280;2351;50.812;12.872;2023-04-01T01:48:42;96153.09;;;6.90;100.00
5062;BME280;2351;50.812;12.872;2023-04-01T01:51:16;96157.81;;;6.87;100.00
5062;BME280;2351;50.812;12.872;2023-04-01T01:53:49;96156.72;;;6.89;100.00
5062;BME280;2351;50.812;12.872;2023-04-01T01:56:23;96151.75;;;6.86;100.00
5062;BME280;2351;50.812;12.872;2023-04-01T01:59:00;96155.06;;;6.88;100.00
5062;BME280;2351;50.812;12.872;2023-04-01T02:01:37;96153.41;;;6.87;100.00
5062;BME280;2351;50.812;12.872;2023-04-01T02:04:13;96162.28;;;6.86;100.00
5062;BME280;2351;50.812;12.872;2023-04-01T02:06:51;96163.25;;;6.85;100.00
5062;BME280;2351;50.812;12.872;2023-04-01T02:09:24;96158.28;;;6.82;100.00
5062;BME280;2351;50.812;12.872;2023-04-01T02:11:59;96160.91;;;6.82;100.00
5062;BME280;2351;50.812;12.872;2023-04-01T02:14:37;96148.44;;;6.84;100.00
5062;BME280;2351;50.812;12.872;2023-04-01T02:17:13;96152.06;;;6.83;100.00
5062;BME280;2351;50.812;12.872;2023-04-01T02:19:50;96153.41;;;6.87;100.00
5062;BME280;2351;50.812;12.872;2023-04-01T02:22:27;96156.16;;;6.86;100.00
5062;BME280;2351;50.812;12.872;2023-04-01T02:25:03;96143.56;;;6.89;100.00
5062;BME280;2351;50.812;12.872;2023-04-01T02:27:36;96151.75;;;6.86;100.00
5062;BME280;2351;50.812;12.872;2023-04-01T02:30:09;96146.50;;;6.86;100.00
5062;BME280;2351;50.812;12.872;2023-04-01T02:32:42;96146.31;;;6.88;100.00
5062;BME280;2351;50.812;12.872;2023-04-01T02:35:15;96147.16;;;6.88;100.00
5062;BME280;2351;50.812;12.872;2023-04-01T02:37:49;96154.91;;;6.90;100.00
5062;BME280;2351;50.812;12.872;2023-04-01T02:40:22;96152.63;;;6.95;100.00
5062;BME280;2351;50.812;12.872;2023-04-01T02:42:54;96153.09;;;6.90;100.00
5062;BME280;2351;50.812;12.872;2023-04-01T02:45:26;96159.72;;;6.95;100.00
5062;BME280;2351;50.812;12.872;2023-04-01T02:47:57;96152.16;;;7.00;100.00
5062;BME280;2351;50.812;12.872;2023-04-01T02:50:29;96155.94;;;6.97;100.00
5062;BME280;2351;50.812;12.872;2023-04-01T02:53:02;96155.94;;;6.97;100.00
5062;BME280;2351;50.812;12.872;2023-04-01T02:55:36;96164.13;;;6.94;100.00
5062;BME280;2351;50.812;12.872;2023-04-01T02:58:08;96153.31;;;6.97;100.00
5062;BME280;2351;50.812;12.872;2023-04-01T03:00:40;96151.81;;;6.95;100.00
5062;BME280;2351;50.812;12.872;2023-04-01T03:03:11;96163.97;;;6.96;100.00
5062;BME280;2351;50.812;12.872;2023-04-01T03:05:44;96170.88;;;6.97;100.00
5062;BME280;2351;50.812;12.872;2023-04-01T03:08:17;96167.28;;;6.98;100.00
5062;BME280;2351;50.812;12.872;2023-04-01T03:10:48;96164.66;;;6.98;100.00
5062;BME280;2351;50.812;12.872;2023-04-01T03:13:20;96168.94;;;6.99;100.00
5062;BME280;2351;50.812;12.872;2023-04-01T03:15:52;96166.94;;;6.92;100.00
5062;BME280;2351;50.812;12.872;2023-04-01T03:18:24;96175.50;;;6.95;100.00
5062;BME280;2351;50.812;12.872;2023-04-01T03:20:56;96164.50;;;6.99;100.00
5062;BME280;2351;50.812;12.872;2023-04-01T03:23:29;96169.22;;;6.96;100.00
5062;BME280;2351;50.812;12.872;2023-04-01T03:26:01;96175.41;;;7.04;100.00
5062;BME280;2351;50.812;12.872;2023-04-01T03:28:32;96168.13;;;6.98;100.00
5062;BME280;2351;50.812;12.872;2023-04-01T03:31:05;96176.31;;;6.95;100.00
5062;BME280;2351;50.812;12.872;2023-04-01T03:33:36;96183.22;;;6.96;100.00
5062;BME280;2351;50.812;12.872;2023-04-01T03:36:08;96177.28;;;6.94;100.00
5062;BME280;2351;50.812;12.872;2023-04-01T03:38:43;96178.56;;;6.90;100.00
5062;BME280;2351;50.812;12.872;2023-04-01T03:41:16;96181.06;;;6.91;100.00
5062;BME280;2351;50.812;12.872;2023-04-01T03:43:48;96188.72;;;6.85;100.00
5062;BME280;2351;50.812;12.872;2023-04-01T03:46:20;96178.88;;;6.87;100.00
5062;BME280;2351;50.812;12.872;2023-04-01T03:48:52;96175.25;;;6.88;100.00
5062;BME280;2351;50.812;12.872;2023-04-01T03:51:24;96179.03;;;6.85;100.00
5062;BME280;2351;50.812;12.872;2023-04-01T03:53:57;96185.78;;;6.88;100.00
5062;BME280;2351;50.812;12.872;2023-04-01T03:56:29;96182.13;;;6.81;100.00
5062;BME280;2351;50.812;12.872;2023-04-01T03:59:02;96188.50;;;6.78;100.00
5062;BME280;2351;50.812;12.872;2023-04-01T04:01:34;96187.00;;;6.75;100.00
5062;BME280;2351;50.812;12.872;2023-04-01T04:04:06;96189.75;;;6.74;100.00
5062;BME280;2351;50.812;12.872;2023-04-01T04:06:37;96193.91;;;6.76;100.00
5062;BME280;2351;50.812;12.872;2023-04-01T04:09:10;96195.88;;;6.74;100.00
5062;BME280;2351;50.812;12.872;2023-04-01T04:11:42;96202.41;;;6.70;100.00
5062;BME280;2351;50.812;12.872;2023-04-01T04:14:14;96199.78;;;6.70;100.00
5062;BME280;2351;50.812;12.872;2023-04-01T04:16:46;96197.31;;;6.69;100.00
5062;BME280;2351;50.812;12.872;2023-04-01T04:19:17;96198.66;;;6.73;100.00
5062;BME280;2351;50.812;12.872;2023-04-01T04:21:49;96202.25;;;6.72;100.00
5062;BME280;2351;50.812;12.872;2023-04-01T04:24:22;96200.59;;;6.71;100.00
5062;BME280;2351;50.812;12.872;2023-04-01T04:26:54;96205.19;;;6.69;100.00
5062;BME280;2351;50.812;12.872;2023-04-01T04:29:25;96211.41;;;6.68;100.00
5062;BME280;2351;50.812;12.872;2023-04-01T04:31:57;96209.91;;;6.65;100.00
5062;BME280;2351;50.812;12.872;2023-04-01T04:34:29;96210.59;;;6.67;100.00
5062;BME280;2351;50.812;12.872;2023-04-01T04:37:01;96203.53;;;6.68;100.00
5062;BME280;2351;50.812;12.872;2023-04-01T04:39:34;96208.94;;;6.66;100.00
5062;BME280;2351;50.812;12.872;2023-04-01T04:42:06;96208.94;;;6.66;100.00
5062;BME280;2351;50.812;12.872;2023-04-01T04:44:38;96215.03;;;6.67;100.00
5062;BME280;2351;50.812;12.872;2023-04-01T04:47:10;96207.94;;;6.67;100.00
5062;BME280;2351;50.812;12.872;2023-04-01T04:49:42;96222.91;;;6.67;100.00
5062;BME280;2351;50.812;12.872;2023-04-01T04:52:13;96210.88;;;6.64;100.00
5062;BME280;2351;50.812;12.872;2023-04-01T04:54:46;96210.59;;;6.67;100.00
5062;BME280;2351;50.812;12.872;2023-04-01T04:57:18;96209.91;;;6.65;100.00
5062;BME280;2351;50.812;12.872;2023-04-01T04:59:50;96206.84;;;6.70;100.00
5062;BME280;2351;50.812;12.872;2023-04-01T05:02:22;96215.84;;;6.67;100.00
5062;BME280;2351;50.812;12.872;2023-04-01T05:04:53;96213.06;;;6.69;100.00
5062;BME280;2351;50.812;12.872;2023-04-01T05:07:25;96209.19;;;6.73;100.00
5062;BME280;2351;50.812;12.872;2023-04-01T05:09:58;96215.41;;;6.72;100.00
5062;BME280;2351;50.812;12.872;2023-04-01T05:12:30;96215.53;;;6.70;100.00
5062;BME280;2351;50.812;12.872;2023-04-01T05:15:07;96216.75;;;6.76;100.00
5062;BME280;2351;50.812;12.872;2023-04-01T05:17:39;96217.19;;;6.71;100.00
5062;BME280;2351;50.812;12.872;2023-04-01T05:20:11;96216.06;;;6.74;100.00
5062;BME280;2351;50.812;12.872;2023-04-01T05:22:43;96220.03;;;6.78;100.00
5062;BME280;2351;50.812;12.872;2023-04-01T05:25:16;96223.34;;;6.80;100.00
5062;BME280;2351;50.812;12.872;2023-04-01T05:27:48;96219.16;;;6.87;100.00
5062;BME280;2351;50.812;12.872;2023-04-01T05:30:20;96215.69;;;6.87;100.00
5062;BME280;2351;50.812;12.872;2023-04-01T05:32:52;96225.38;;;6.86;100.00
5062;BME280;2351;50.812;12.872;2023-04-01T05:35:24;96230.06;;;6.92;100.00
5062;BME280;2351;50.812;12.872;2023-04-01T05:37:56;96225.47;;;6.95;100.00
5062;BME280;2351;50.812;12.872;2023-04-01T05:40:29;96230.28;;;6.99;100.00
5062;BME280;2351;50.812;12.872;2023-04-01T05:43:01;96227.78;;;6.98;100.00
5062;BME280;2351;50.812;12.872;2023-04-01T05:45:33;96236.81;;;6.95;100.00
5062;BME280;2351;50.812;12.872;2023-04-01T05:48:05;96229.44;;;6.99;100.00
5062;BME280;2351;50.812;12.872;2023-04-01T05:50:37;96229.97;;;7.02;100.00
5062;BME280;2351;50.812;12.872;2023-04-01T05:53:10;96231.47;;;7.05;100.00
5062;BME280;2351;50.812;12.872;2023-04-01T05:55:43;96234.59;;;7.08;100.00
5062;BME280;2351;50.812;12.872;2023-04-01T05:58:15;96223.19;;;7.18;100.00
5062;BME280;2351;50.812;12.872;2023-04-01T06:00:47;96238.75;;;7.11;100.00
5062;BME280;2351;50.812;12.872;2023-04-01T06:03:18;96238.06;;;7.09;100.00
5062;BME280;2351;50.812;12.872;2023-04-01T06:05:50;96235.44;;;7.09;100.00
5062;BME280;2351;50.812;12.872;2023-04-01T06:08:22;96239.44;;;7.13;100.00
5062;BME280;2351;50.812;12.872;2023-04-01T06:11:02;96234.84;;;7.15;100.00
5062;BME280;2351;50.812;12.872;2023-04-01T06:13:46;96240.75;;;7.17;100.00
5062;BME280;2351;50.812;12.872;2023-04-01T06:16:29;96238.66;;;7.21;100.00
5062;BME280;2351;50.812;12.872;2023-04-01T06:19:12;96244.22;;;7.18;100.00
5062;BME280;2351;50.812;12.872;2023-04-01T06:22:19;96240.81;;;7.26;100.00
5062;BME280;2351;50.812;12.872;2023-04-01T06:25:02;96255.50;;;7.28;100.00
5062;BME280;2351;50.812;12.872;2023-04-01T06:27:53;96246.97;;;7.34;100.00
5062;BME280;2351;50.812;12.872;2023-04-01T06:30:38;96252.09;;;7.36;100.00
5062;BME280;2351;50.812;12.872;2023-04-01T06:33:28;96246.19;;;7.42;100.00
5062;BME280;2351;50.812;12.872;2023-04-01T06:39:29;96254.22;;;7.59;100.00
5062;BME280;2351;50.812;12.872;2023-04-01T06:42:38;96257.31;;;7.54;100.00
5062;BME280;2351;50.812;12.872;2023-04-01T06:45:27;96272.34;;;7.62;100.00
5062;BME280;2351;50.812;12.872;2023-04-01T06:48:11;96261.50;;;7.65;100.00
5062;BME280;2351;50.812;12.872;2023-04-01T06:50:54;96272.34;;;7.62;100.00
5062;BME280;2351;50.812;12.872;2023-04-01T06:53:34;96264.44;;;7.62;100.00
5062;BME280;2351;50.812;12.872;2023-04-01T06:56:14;96266.31;;;7.69;100.00
5062;BME280;2351;50.812;12.872;2023-04-01T06:58:49;96265.97;;;7.73;100.00
5062;BME280;2351;50.812;12.872;2023-04-01T07:01:27;96271.81;;;7.84;100.00
5062;BME280;2351;50.812;12.872;2023-04-01T07:04:05;96266.47;;;7.94;100.00
5062;BME280;2351;50.812;12.872;2023-04-01T07:06:45;96276.88;;;8.04;100.00
5062;BME280;2351;50.812;12.872;2023-04-01T07:09:20;96275.91;;;8.05;100.00
5062;BME280;2351;50.812;12.872;2023-04-01T07:11:58;96275.41;;;8.10;100.00
5062;BME280;2351;50.812;12.872;2023-04-01T07:14:35;96272.81;;;8.18;100.00
5062;BME280;2351;50.812;12.872;2023-04-01T07:17:12;96273.84;;;8.25;100.00
5062;BME280;2351;50.812;12.872;2023-04-01T07:19:51;96274.53;;;8.36;100.00
5062;BME280;2351;50.812;12.872;2023-04-01T07:22:28;96271.78;;;8.46;100.00
5062;BME280;2351;50.812;12.872;2023-04-01T07:25:03;96273.16;;;8.58;100.00
5062;BME280;2351;50.812;12.872;2023-04-01T07:27:36;96267.88;;;8.58;100.00
5062;BME280;2351;50.812;12.872;2023-04-01T07:30:14;96279.44;;;8.65;100.00
5062;BME280;2351;50.812;12.872;2023-04-01T07:32:51;96276.31;;;8.70;100.00
5062;BME280;2351;50.812;12.872;2023-04-01T07:35:27;96281.13;;;8.83;100.00
5062;BME280;2351;50.812;12.872;2023-04-01T07:38:15;96278.53;;;8.91;100.00
5062;BME280;2351;50.812;12.872;2023-04-01T07:40:56;96273.09;;;9.17;100.00
5062;BME280;2351;50.812;12.872;2023-04-01T07:43:52;96270.47;;;9.42;100.00
5062;BME280;2351;50.812;12.872;2023-04-01T07:46:38;96275.19;;;9.88;100.00
5062;BME280;2351;50.812;12.872;2023-04-01T07:49:17;96273.72;;;10.34;98.92
5062;BME280;2351;50.812;12.872;2023-04-01T07:51:57;96277.75;;;10.21;96.51
5062;BME280;2351;50.812;12.872;2023-04-01T07:54:37;96273.59;;;10.27;96.66
5062;BME280;2351;50.812;12.872;2023-04-01T07:57:15;96276.41;;;10.25;92.84
5062;BME280;2351;50.812;12.872;2023-04-01T07:59:58;96273.00;;;10.00;91.90
5062;BME280;2351;50.812;12.872;2023-04-01T08:02:41;96277.28;;;10.01;93.63
5062;BME280;2351;50.812;12.872;2023-04-01T08:05:23;96280.88;;;10.17;94.55
5062;BME280;2351;50.812;12.872;2023-04-01T08:08:05;96278.69;;;10.29;94.28
5062;BME280;2351;50.812;12.872;2023-04-01T08:10:44;96289.78;;;10.24;91.61
5062;BME280;2351;50.812;12.872;2023-04-01T08:13:26;96280.72;;;10.10;91.79
5062;BME280;2351;50.812;12.872;2023-04-01T08:16:09;96287.06;;;9.92;90.85
5062;BME280;2351;50.812;12.872;2023-04-01T08:18:49;96286.09;;;9.77;90.58
5062;BME280;2351;50.812;12.872;2023-04-01T08:21:28;96292.34;;;9.84;92.43
5062;BME280;2351;50.812;12.872;2023-04-01T08:24:11;96293.63;;;10.13;94.29
5062;BME280;2351;50.812;12.872;2023-04-01T08:26:51;96288.84;;;10.57;94.07
5062;BME280;2351;50.812;12.872;2023-04-01T08:29:31;96287.91;;;11.12;94.14
5062;BME280;2351;50.812;12.872;2023-04-01T08:32:11;96285.47;;;11.26;90.95
5062;BME280;2351;50.812;12.872;2023-04-01T08:34:48;96288.25;;;11.09;89.65
5062;BME280;2351;50.812;12.872;2023-04-01T08:37:28;96288.94;;;10.80;88.48
5062;BME280;2351;50.812;12.872;2023-04-01T08:40:16;96288.88;;;10.48;86.44
5062;BME280;2351;50.812;12.872;2023-04-01T08:43:04;96300.16;;;10.34;88.40
5062;BME280;2351;50.812;12.872;2023-04-01T08:45:49;96288.28;;;10.30;89.13
5062;BME280;2351;50.812;12.872;2023-04-01T08:48:43;96297.50;;;10.34;89.74
5062;BME280;2351;50.812;12.872;2023-04-01T08:51:31;96296.19;;;10.38;89.23
5062;BME280;2351;50.812;12.872;2023-04-01T08:54:29;96300.22;;;10.25;87.52
5062;BME280;2351;50.812;12.872;2023-04-01T08:57:10;96292.81;;;10.13;87.14
5062;BME280;2351;50.812;12.872;2023-04-01T09:00:11;96290.50;;;10.01;86.83
5062;BME280;2351;50.812;12.872;2023-04-01T09:02:59;96294.66;;;9.95;86.68
5062;BME280;2351;50.812;12.872;2023-04-01T09:05:55;96293.69;;;9.88;86.53
5062;BME280;2351;50.812;12.872;2023-04-01T09:08:41;96293.84;;;9.87;86.82
5062;BME280;2351;50.812;12.872;2023-04-01T09:11:27;96296.16;;;9.82;86.27
5062;BME280;2351;50.812;12.872;2023-04-01T09:14:23;96287.41;;;9.89;87.02
5062;BME280;2351;50.812;12.872;2023-04-01T09:17:14;96295.84;;;9.93;86.47
5062;BME280;2351;50.812;12.872;2023-04-01T09:20:02;96300.78;;;9.88;86.00
5062;BME280;2351;50.812;12.872;2023-04-01T09:22:51;96302.59;;;9.87;85.15
5062;BME280;2351;50.812;12.872;2023-04-01T09:25:41;96308.88;;;9.86;85.26
5062;BME280;2351;50.812;12.872;2023-04-01T09:28:20;96307.22;;;9.85;85.62
5062;BME280;2351;50.812;12.872;2023-04-01T09:31:19;96304.56;;;9.93;85.71
5062;BME280;2351;50.812;12.872;2023-04-01T09:37:19;96301.53;;;10.21;nan
5062;BME280;2351;50.812;12.872;2023-04-01T09:40:03;96303.47;;;10.36;85.74
5062;BME280;2351;50.812;12.872;2023-04-01T09:42:45;96306.13;;;10.44;84.49
5062;BME280;2351;50.812;12.872;2023-04-01T09:45:44;96309.41;;;10.46;83.71
5062;BME280;2351;50.812;12.872;2023-04-01T09:48:29;96313.66;;;10.55;83.85
5062;BME280;2351;50.812;12.872;2023-04-01T09:51:11;96312.66;;;10.65;84.25
5062;BME280;2351;50.812;12.872;2023-04-01T09:53:59;96312.66;;;10.65;82.30
5062;BME280;2351;50.812;12.872;2023-04-01T10:03:45;96312.56;;;11.05;83.68
5062;BME280;2351;50.812;12.872;2023-04-01T10:09:51;96317.06;;;11.27;83.44
5062;BME280;2351;50.812;12.872;2023-04-01T10:16:15;96323.91;;;11.22;81.67
5062;BME280;2351;50.812;12.872;2023-04-01T10:19:23;96322.25;;;11.21;82.38
5062;BME280;2351;50.812;12.872;2023-04-01T10:22:32;96321.34;;;11.05;81.22
5062;BME280;2351;50.812;12.872;2023-04-01T10:25:32;96323.34;;;11.03;81.29
5062;BME280;2351;50.812;12.872;2023-04-01T10:28:36;96326.81;;;11.04;81.31
5062;BME280;2351;50.812;12.872;2023-04-01T10:40:59;96320.47;;;11.13;79.88
5062;BME280;2351;50.812;12.872;2023-04-01T10:43:57;96320.59;;;10.96;77.67
5062;BME280;2351;50.812;12.872;2023-04-01T10:46:59;96313.53;;;10.89;78.25
5062;BME280;2351;50.812;12.872;2023-04-01T10:50:02;96315.66;;;10.85;77.95
5062;BME280;2351;50.812;12.872;2023-04-01T10:59:07;96312.88;;;10.87;77.63
5062;BME280;2351;50.812;12.872;2023-04-01T11:02:04;96314.16;;;10.91;78.22
5062;BME280;2351;50.812;12.872;2023-04-01T11:11:28;96315.88;;;11.07;77.62
5062;BME280;2351;50.812;12.872;2023-04-01T11:14:35;96322.00;;;11.07;77.34
5062;BME280;2351;50.812;12.872;2023-04-01T11:20:31;96322.69;;;11.01;77.68
5062;BME280;2351;50.812;12.872;2023-04-01T11:26:32;96326.22;;;10.93;77.58
5062;BME280;2351;50.812;12.872;2023-04-01T11:29:29;96324.09;;;10.89;77.82
5062;BME280;2351;50.812;12.872;2023-04-01T11:32:15;96331.72;;;10.83;77.58
5062;BME280;2351;50.812;12.872;2023-04-01T11:35:00;96344.50;;;10.80;77.80
5062;BME280;2351;50.812;12.872;2023-04-01T11:37:40;96337.25;;;10.74;77.97
5062;BME280;2351;50.812;12.872;2023-04-01T11:40:22;96335.94;;;10.69;78.30
5062;BME280;2351;50.812;12.872;2023-04-01T11:43:05;96340.41;;;10.69;79.07
5062;BME280;2351;50.812;12.872;2023-04-01T11:45:43;96336.25;;;10.75;79.33
5062;BME280;2351;50.812;12.872;2023-04-01T11:48:35;96337.38;;;10.80;79.72
5062;BME280;2351;50.812;12.872;2023-04-01T11:54:47;96329.09;;;10.83;80.25
5062;BME280;2351;50.812;12.872;2023-04-01T11:57:36;96348.28;;;10.77;80.18
5062;BME280;2351;50.812;12.872;2023-04-01T12:00:21;96345.69;;;10.69;80.24
5062;BME280;2351;50.812;12.872;2023-04-01T12:03:10;96345.25;;;10.57;80.63
5062;BME280;2351;50.812;12.872;2023-04-01T12:05:52;96348.56;;;10.51;80.57
5062;BME280;2351;50.812;12.872;2023-04-01T12:08:33;96349.91;;;10.47;81.19
5062;BME280;2351;50.812;12.872;2023-04-01T12:11:14;96348.91;;;10.48;81.29
5062;BME280;2351;50.812;12.872;2023-04-01T12:13:53;96346.44;;;10.46;81.74
5062;BME280;2351;50.812;12.872;2023-04-01T12:16:43;96339.84;;;10.42;82.01
5062;BME280;2351;50.812;12.872;2023-04-01T12:19:26;96351.72;;;10.38;82.18
5062;BME280;2351;50.812;12.872;2023-04-01T12:22:13;96346.28;;;10.31;82.80
5062;BME280;2351;50.812;12.872;2023-04-01T12:24:49;96350.44;;;10.25;82.82
5062;BME280;2351;50.812;12.872;2023-04-01T12:27:43;96346.63;;;10.20;83.35
5062;BME280;2351;50.812;12.872;2023-04-01T12:30:42;96347.81;;;10.17;84.61
5062;BME280;2351;50.812;12.872;2023-04-01T12:33:34;96352.44;;;10.15;84.88
5062;BME280;2351;50.812;12.872;2023-04-01T12:36:16;96349.97;;;10.14;85.27
5062;BME280;2351;50.812;12.872;2023-04-01T12:39:01;96343.50;;;10.08;86.46
5062;BME280;2351;50.812;12.872;2023-04-01T12:41:48;96347.50;;;10.04;86.50
5062;BME280;2351;50.812;12.872;2023-04-01T12:44:44;96361.06;;;10.01;86.25
5062;BME280;2351;50.812;12.872;2023-04-01T12:47:43;96363.38;;;9.87;87.95
5062;BME280;2351;50.812;12.872;2023-04-01T12:50:34;96373.13;;;9.70;87.40
5062;BME280;2351;50.812;12.872;2023-04-01T12:53:24;96366.03;;;9.54;88.58
5062;BME280;2351;50.812;12.872;2023-04-01T12:55:59;96368.66;;;9.46;88.94
5062;BME280;2351;50.812;12.872;2023-04-01T12:58:53;96371.47;;;9.44;89.52
5062;BME280;2351;50.812;12.872;2023-04-01T13:07:53;96365.84;;;9.56;92.46
5062;BME280;2351;50.812;12.872;2023-04-01T13:10:57;96373.47;;;9.67;92.37
5062;BME280;2351;50.812;12.872;2023-04-01T13:14:08;96370.97;;;9.82;93.36
5062;BME280;2351;50.812;12.872;2023-04-01T13:16:53;96374.94;;;10.03;94.67
5062;BME280;2351;50.812;12.872;2023-04-01T13:19:31;96370.56;;;10.27;95.78
5062;BME280;2351;50.812;12.872;2023-04-01T13:22:10;96371.06;;;10.55;95.93
5062;BME280;2351;50.812;12.872;2023-04-01T13:24:50;96374.75;;;10.77;96.53
5062;BME280;2351;50.812;12.872;2023-04-01T13:27:29;96374.06;;;10.83;96.02
5062;BME280;2351;50.812;12.872;2023-04-01T13:30:17;96385.31;;;10.85;96.04
5062;BME280;2351;50.812;12.872;2023-04-01T13:32:59;96383.91;;;10.66;94.48
5062;BME280;2351;50.812;12.872;2023-04-01T13:35:41;96386.09;;;10.38;93.62
5062;BME280;2351;50.812;12.872;2023-04-01T13:38:48;96379.69;;;10.24;95.13
5062;BME280;2351;50.812;12.872;2023-04-01T13:41:31;96380.84;;;10.21;95.69
5062;BME280;2351;50.812;12.872;2023-04-01T13:44:10;96385.44;;;10.28;96.42
5062;BME280;2351;50.812;12.872;2023-04-01T13:46:54;96393.72;;;10.33;96.61
5062;BME280;2351;50.812;12.872;2023-04-01T13:49:57;96384.09;;;10.48;97.40
5062;BME280;2351;50.812;12.872;2023-04-01T13:53:01;96380.44;;;10.58;96.51
5062;BME280;2351;50.812;12.872;2023-04-01T13:55:55;96381.28;;;10.58;96.65
5062;BME280;2351;50.812;12.872;2023-04-01T13:58:53;96385.94;;;10.56;96.57
5062;BME280;2351;50.812;12.872;2023-04-01T14:01:34;96393.53;;;10.51;96.35
5062;BME280;2351;50.812;12.872;2023-04-01T14:04:34;96388.75;;;10.38;96.03
5062;BME280;2351;50.812;12.872;2023-04-01T14:07:28;96389.41;;;10.32;95.86
5062;BME280;2351;50.812;12.872;2023-04-01T14:10:15;96390.91;;;10.26;95.81
5062;BME280;2351;50.812;12.872;2023-04-01T14:12:57;96394.56;;;10.17;95.92
5062;BME280;2351;50.812;12.872;2023-04-01T14:15:40;96399.03;;;10.16;96.30
5062;BME280;2351;50.812;12.872;2023-04-01T14:18:27;96399.34;;;10.13;96.31
5062;BME280;2351;50.812;12.872;2023-04-01T14:21:19;96408.63;;;10.09;96.41
5062;BME280;2351;50.812;12.872;2023-04-01T14:24:08;96412.56;;;10.05;96.03
5062;BME280;2351;50.812;12.872;2023-04-01T14:27:17;96400.72;;;10.01;96.54
5062;BME280;2351;50.812;12.872;2023-04-01T14:30:03;96400.38;;;10.04;96.97
5062;BME280;2351;50.812;12.872;2023-04-01T14:32:48;96401.66;;;10.08;97.17
5062;BME280;2351;50.812;12.872;2023-04-01T14:35:31;96404.66;;;10.13;97.76
5062;BME280;2351;50.812;12.872;2023-04-01T14:38:16;96406.78;;;10.18;97.93
5062;BME280;2351;50.812;12.872;2023-04-01T14:41:02;96411.41;;;10.24;97.90
5062;BME280;2351;50.812;12.872;2023-04-01T14:44:04;96411.59;;;10.22;98.25
5062;BME280;2351;50.812;12.872;2023-04-01T14:47:08;96415.38;;;10.20;97.98
5062;BME280;2351;50.812;12.872;2023-04-01T14:49:46;96407.47;;;10.12;97.68
5062;BME280;2351;50.812;12.872;2023-04-01T14:52:24;96412.09;;;10.09;97.98
5062;BME280;2351;50.812;12.872;2023-04-01T14:55:00;96415.06;;;10.06;97.51
5062;BME280;2351;50.812;12.872;2023-04-01T14:57:35;96410.59;;;10.07;97.64
5062;BME280;2351;50.812;12.872;2023-04-01T15:00:13;96407.47;;;10.12;97.68
5062;BME280;2351;50.812;12.872;2023-04-01T15:02:51;96409.28;;;10.19;98.10
5062;BME280;2351;50.812;12.872;2023-04-01T15:05:36;96415.53;;;10.27;98.21
5062;BME280;2351;50.812;12.872;2023-04-01T15:08:14;96411.22;;;10.34;98.38
5062;BME280;2351;50.812;12.872;2023-04-01T15:11:18;96410.91;;;10.45;98.48
5062;BME280;2351;50.812;12.872;2023-04-01T15:14:19;96417.50;;;10.49;98.34
5062;BME280;2351;50.812;12.872;2023-04-01T15:17:04;96418.16;;;10.51;98.53
5062;BME280;2351;50.812;12.872;2023-04-01T15:19:53;96417.69;;;10.48;98.45
5062;BME280;2351;50.812;12.872;2023-04-01T15:22:41;96417.88;;;10.46;98.06
5062;BME280;2351;50.812;12.872;2023-04-01T15:25:37;96416.53;;;10.42;97.67